createdAt,value
2022-10-09T00:01:20.275Z,9.41
2022-10-09T00:03:50.497Z,9.31
2022-10-09T00:06:23.474Z,9.31
2022-10-09T00:08:50.893Z,9.42
2022-10-09T00:11:21.623Z,9.42
2022-10-09T00:13:49.349Z,9.27
2022-10-09T00:16:17.379Z,9.30
2022-10-09T00:18:44.796Z,9.38
2022-10-09T00:21:21.796Z,9.35
2022-10-09T00:23:50.169Z,9.29
2022-10-09T00:26:17.577Z,9.33
2022-10-09T00:28:45.125Z,9.28
2022-10-09T00:31:13.639Z,9.28
2022-10-09T00:33:40.712Z,9.25
2022-10-09T00:36:11.005Z,9.19
2022-10-09T00:38:38.137Z,9.14
2022-10-09T00:41:05.234Z,9.14
2022-10-09T00:44:03.244Z,9.12
2022-10-09T00:46:33.781Z,9.09
2022-10-09T00:49:31.099Z,8.99
2022-10-09T00:52:02.447Z,9.00
2022-10-09T00:54:33.646Z,9.03
2022-10-09T00:57:00.599Z,8.99
2022-10-09T00:59:27.924Z,8.92
2022-10-09T01:01:55.214Z,8.97
2022-10-09T01:04:22.121Z,9.01
2022-10-09T01:07:19.305Z,8.83
2022-10-09T01:09:57.213Z,9.00
2022-10-09T01:12:40.855Z,8.96
2022-10-09T01:15:13.872Z,8.94
2022-10-09T01:17:52.605Z,8.88
2022-10-09T01:20:37.927Z,8.84
2022-10-09T01:23:35.602Z,8.77
2022-10-09T01:26:22.970Z,8.69
2022-10-09T01:28:55.397Z,8.76
2022-10-09T01:31:25.229Z,8.59
2022-10-09T01:33:52.564Z,8.69
2022-10-09T01:36:20.878Z,8.75
2022-10-09T01:38:48.643Z,8.77
2022-10-09T01:41:15.916Z,8.77
2022-10-09T01:43:42.839Z,8.70
2022-10-09T01:46:19.160Z,8.72
2022-10-09T01:49:23.961Z,8.70
2022-10-09T01:52:03.242Z,8.44
2022-10-09T01:54:41.163Z,8.76
2022-10-09T01:57:10.254Z,8.76
2022-10-09T01:59:42.742Z,8.77
2022-10-09T02:02:10.974Z,8.73
2022-10-09T02:04:40.533Z,8.84
2022-10-09T02:07:07.872Z,8.77
2022-10-09T02:09:36.087Z,8.84
2022-10-09T02:12:08.163Z,8.80
2022-10-09T02:14:36.042Z,8.77
2022-10-09T02:17:14.877Z,8.77
2022-10-09T02:19:50.692Z,8.85
2022-10-09T02:22:22.704Z,8.86
2022-10-09T02:24:49.608Z,8.83
2022-10-09T02:27:18.998Z,8.80
2022-10-09T02:29:46.724Z,8.87
2022-10-09T02:32:13.870Z,8.80
2022-10-09T02:34:40.953Z,8.78
2022-10-09T02:37:08.411Z,8.84
2022-10-09T02:39:36.281Z,8.89
2022-10-09T02:42:04.157Z,8.88
2022-10-09T02:44:31.016Z,8.83
2022-10-09T02:46:57.841Z,8.72
2022-10-09T02:49:24.736Z,8.66
2022-10-09T02:51:51.652Z,8.65
2022-10-09T02:54:18.612Z,8.62
2022-10-09T02:56:45.804Z,8.61
2022-10-09T02:59:12.601Z,8.55
2022-10-09T03:01:39.563Z,8.56
2022-10-09T03:04:06.507Z,8.54
2022-10-09T03:06:34.896Z,8.53
2022-10-09T03:09:01.884Z,8.50
2022-10-09T03:11:28.755Z,8.50
2022-10-09T03:13:55.662Z,8.49
2022-10-09T03:16:24.664Z,8.42
2022-10-09T03:18:53.089Z,8.41
2022-10-09T03:21:25.471Z,8.36
2022-10-09T03:23:53.497Z,8.39
2022-10-09T03:26:23.747Z,8.33
2022-10-09T03:28:52.206Z,8.35
2022-10-09T03:34:08.298Z,8.29
2022-10-09T03:36:35.301Z,8.26
2022-10-09T03:39:02.128Z,8.27
2022-10-09T03:41:29.230Z,8.28
2022-10-09T03:43:56.010Z,8.27
2022-10-09T03:46:23.114Z,8.19
2022-10-09T03:48:50.015Z,8.06
2022-10-09T03:51:16.877Z,8.07
2022-10-09T03:53:43.667Z,7.92
2022-10-09T03:56:10.564Z,7.83
2022-10-09T03:58:37.359Z,7.94
2022-10-09T04:01:04.511Z,7.83
2022-10-09T04:03:31.476Z,8.02
2022-10-09T04:05:58.314Z,8.03
2022-10-09T04:08:25.210Z,8.00
2022-10-09T04:11:01.126Z,7.96
2022-10-09T04:13:28.259Z,7.85
2022-10-09T04:15:56.328Z,7.90
2022-10-09T04:18:23.673Z,7.88
2022-10-09T04:20:55.707Z,7.90
2022-10-09T04:23:25.202Z,7.88
2022-10-09T04:25:56.718Z,7.78
2022-10-09T04:28:26.257Z,7.91
2022-10-09T04:30:53.398Z,7.77
2022-10-09T04:33:20.483Z,7.97
2022-10-09T04:35:51.556Z,7.94
2022-10-09T04:38:19.135Z,7.94
2022-10-09T04:40:57.589Z,7.92
2022-10-09T04:43:24.678Z,7.94
2022-10-09T04:45:51.756Z,7.97
2022-10-09T04:48:19.061Z,7.99
2022-10-09T04:50:46.028Z,8.02
2022-10-09T04:53:13.876Z,7.97
2022-10-09T04:55:42.111Z,8.05
2022-10-09T04:58:10.330Z,8.09
2022-10-09T05:00:45.331Z,8.21
2022-10-09T05:03:13.426Z,8.27
2022-10-09T05:05:40.505Z,8.31
2022-10-09T05:08:07.641Z,8.37
2022-10-09T05:10:34.687Z,8.43
2022-10-09T05:13:01.797Z,8.48
2022-10-09T05:15:28.743Z,8.57
2022-10-09T05:17:55.708Z,8.66
2022-10-09T05:20:22.902Z,8.74
2022-10-09T05:22:50.100Z,8.84
2022-10-09T05:25:17.113Z,8.92
2022-10-09T05:27:43.995Z,9.05
2022-10-09T05:30:11.702Z,9.12
2022-10-09T05:32:38.852Z,9.18
2022-10-09T05:35:06.130Z,9.18
2022-10-09T05:37:33.045Z,9.44
2022-10-09T05:40:05.566Z,9.41
2022-10-09T05:42:32.563Z,9.53
2022-10-09T05:44:59.510Z,9.71
2022-10-09T05:47:26.479Z,9.91
2022-10-09T05:49:53.202Z,9.98
2022-10-09T05:52:20.121Z,10.10
2022-10-09T05:54:47.071Z,10.23
2022-10-09T05:57:13.925Z,10.45
2022-10-09T05:59:40.765Z,10.63
2022-10-09T06:02:09.110Z,10.72
2022-10-09T06:04:35.936Z,10.93
2022-10-09T06:07:03.197Z,11.01
2022-10-09T06:09:30.065Z,11.15
2022-10-09T06:11:57.064Z,11.32
2022-10-09T06:14:25.054Z,11.37
2022-10-09T06:16:52.555Z,11.55
2022-10-09T06:19:20.187Z,11.74
2022-10-09T06:21:47.831Z,11.89
2022-10-09T06:24:28.805Z,12.02
2022-10-09T06:26:57.347Z,12.17
2022-10-09T06:29:24.673Z,12.36
2022-10-09T06:31:52.022Z,12.52
2022-10-09T06:34:18.954Z,12.65
2022-10-09T06:36:45.870Z,12.85
2022-10-09T06:39:12.861Z,12.98
2022-10-09T06:41:39.805Z,13.15
2022-10-09T06:44:32.582Z,13.31
2022-10-09T06:46:59.823Z,13.46
2022-10-09T06:49:26.770Z,13.63
2022-10-09T06:51:53.706Z,13.77
2022-10-09T06:54:20.704Z,13.90
2022-10-09T06:56:47.500Z,13.99
2022-10-09T06:59:14.579Z,14.12
2022-10-09T07:01:41.414Z,14.29
2022-10-09T07:04:14.419Z,14.40
2022-10-09T07:06:44.160Z,14.60
2022-10-09T07:09:14.266Z,14.77
2022-10-09T07:11:44.861Z,14.93
2022-10-09T07:14:13.193Z,15.01
2022-10-09T07:16:43.953Z,15.26
2022-10-09T07:19:12.469Z,15.43
2022-10-09T07:21:41.378Z,15.59
2022-10-09T07:24:08.698Z,15.73
2022-10-09T07:26:38.449Z,15.87
2022-10-09T07:29:07.945Z,16.06
2022-10-09T07:31:34.904Z,16.21
2022-10-09T07:34:01.914Z,16.36
2022-10-09T07:36:28.924Z,16.52
2022-10-09T07:38:58.106Z,16.74
2022-10-09T07:41:27.690Z,16.82
2022-10-09T07:43:55.088Z,17.01
2022-10-09T07:46:24.533Z,17.11
2022-10-09T07:48:51.499Z,17.27
2022-10-09T07:51:27.230Z,17.38
2022-10-09T07:53:54.714Z,17.52
2022-10-09T07:56:26.941Z,17.60
2022-10-09T07:58:56.008Z,17.70
2022-10-09T08:01:24.263Z,17.75
2022-10-09T08:03:51.379Z,17.89
2022-10-09T08:06:20.305Z,18.05
2022-10-09T08:08:57.862Z,18.04
2022-10-09T08:11:26.396Z,18.22
2022-10-09T08:13:53.768Z,18.27
2022-10-09T08:16:22.603Z,18.36
2022-10-09T08:18:49.657Z,18.31
2022-10-09T08:21:19.324Z,18.54
2022-10-09T08:23:46.893Z,18.56
2022-10-09T08:26:15.531Z,18.67
2022-10-09T08:28:42.869Z,18.79
2022-10-09T08:31:11.983Z,18.84
2022-10-09T08:33:39.289Z,18.92
2022-10-09T08:36:12.170Z,18.97
2022-10-09T08:38:47.209Z,19.11
2022-10-09T08:41:32.969Z,18.95
2022-10-09T08:44:11.434Z,18.94
2022-10-09T08:47:02.446Z,19.06
2022-10-09T08:49:29.295Z,19.20
2022-10-09T08:52:00.783Z,19.21
2022-10-09T08:54:33.364Z,19.38
2022-10-09T08:57:04.414Z,19.43
2022-10-09T08:59:31.997Z,19.37
2022-10-09T09:02:08.399Z,19.36
2022-10-09T09:04:59.884Z,19.39
2022-10-09T09:07:54.737Z,19.38
2022-10-09T09:10:34.929Z,19.30
2022-10-09T09:13:08.570Z,19.43
2022-10-09T09:15:50.935Z,19.59
2022-10-09T09:18:32.998Z,19.64
2022-10-09T09:21:11.171Z,19.43
2022-10-09T09:23:42.279Z,19.64
2022-10-09T09:26:20.994Z,19.95
2022-10-09T09:28:53.027Z,19.97
2022-10-09T09:31:27.450Z,19.81
2022-10-09T09:34:20.835Z,19.84
2022-10-09T09:36:53.164Z,19.80
2022-10-09T09:40:23.819Z,19.81
2022-10-09T09:42:09.822Z,19.99
2022-10-09T09:44:40.358Z,19.93
2022-10-09T09:47:18.622Z,19.79
2022-10-09T09:50:01.014Z,19.83
2022-10-09T09:52:32.345Z,19.88
2022-10-09T09:54:59.610Z,19.85
2022-10-09T09:57:34.368Z,19.86
2022-10-09T10:00:16.410Z,19.82
2022-10-09T10:02:43.446Z,20.01
2022-10-09T10:05:25.954Z,19.86
2022-10-09T10:07:54.389Z,19.99
2022-10-09T10:10:25.626Z,19.92
2022-10-09T10:12:53.104Z,19.97
2022-10-09T10:15:32.160Z,20.01
2022-10-09T10:18:07.665Z,20.14
2022-10-09T10:20:44.734Z,20.22
2022-10-09T10:23:35.633Z,20.32
2022-10-09T10:26:09.127Z,20.31
2022-10-09T10:28:47.264Z,20.36
2022-10-09T10:31:36.228Z,20.40
2022-10-09T10:34:07.710Z,20.38
2022-10-09T10:36:35.065Z,20.47
2022-10-09T10:39:27.641Z,20.49
2022-10-09T10:42:01.633Z,20.65
2022-10-09T10:44:43.627Z,20.43
2022-10-09T10:47:21.720Z,20.13
2022-10-09T10:49:48.993Z,20.24
2022-10-09T10:52:30.790Z,20.32
2022-10-09T10:55:26.994Z,20.37
2022-10-09T10:57:53.863Z,20.58
2022-10-09T11:00:20.887Z,20.67
2022-10-09T11:03:13.787Z,20.86
2022-10-09T11:05:53.971Z,20.77
2022-10-09T11:08:39.194Z,20.75
2022-10-09T11:11:28.456Z,20.67
2022-10-09T11:14:23.415Z,20.63
2022-10-09T11:16:57.253Z,20.79
2022-10-09T11:19:49.180Z,20.98
2022-10-09T11:22:31.333Z,21.07
2022-10-09T11:25:16.945Z,21.30
2022-10-09T11:27:52.843Z,21.40
2022-10-09T11:30:20.297Z,21.53
2022-10-09T11:33:03.176Z,21.55
2022-10-09T11:35:56.372Z,21.50
2022-10-09T11:38:27.231Z,21.48
2022-10-09T11:40:55.689Z,21.55
2022-10-09T11:43:25.812Z,21.54
2022-10-09T11:46:03.002Z,21.51
2022-10-09T11:48:49.515Z,21.54
2022-10-09T11:51:24.841Z,21.34
2022-10-09T11:53:53.923Z,21.41
2022-10-09T11:56:20.691Z,21.43
2022-10-09T11:59:02.155Z,21.17
2022-10-09T12:01:35.153Z,21.02
2022-10-09T12:04:07.113Z,21.18
2022-10-09T12:06:50.210Z,21.28
2022-10-09T12:09:28.998Z,21.39
2022-10-09T12:12:03.687Z,21.50
2022-10-09T12:14:31.282Z,21.54
2022-10-09T12:16:59.178Z,21.52
2022-10-09T12:19:42.149Z,21.35
2022-10-09T12:22:52.418Z,21.40
2022-10-09T12:25:32.588Z,21.26
2022-10-09T12:28:00.715Z,21.36
2022-10-09T12:30:47.467Z,21.58
2022-10-09T12:33:14.374Z,21.56
2022-10-09T12:35:46.246Z,21.57
2022-10-09T12:38:32.265Z,21.67
2022-10-09T12:41:04.548Z,21.77
2022-10-09T12:43:33.574Z,21.92
2022-10-09T12:46:01.304Z,21.71
2022-10-09T12:48:35.369Z,21.51
2022-10-09T12:51:02.446Z,21.62
2022-10-09T12:53:30.091Z,21.69
2022-10-09T12:56:00.588Z,21.75
2022-10-09T12:58:36.870Z,21.47
2022-10-09T13:01:07.788Z,21.42
2022-10-09T13:03:39.495Z,21.56
2022-10-09T13:06:21.661Z,21.43
2022-10-09T13:08:58.444Z,21.61
2022-10-09T13:11:35.675Z,21.70
2022-10-09T13:14:03.004Z,21.64
2022-10-09T13:16:42.278Z,21.64
2022-10-09T13:19:25.522Z,21.71
2022-10-09T13:22:14.113Z,21.62
2022-10-09T13:24:40.974Z,21.67
2022-10-09T13:27:10.503Z,21.70
2022-10-09T13:29:37.390Z,21.55
2022-10-09T13:32:04.355Z,21.43
2022-10-09T13:34:31.431Z,21.45
2022-10-09T13:36:58.318Z,21.49
2022-10-09T13:39:25.440Z,21.61
2022-10-09T13:41:57.495Z,21.64
2022-10-09T13:44:24.596Z,21.47
2022-10-09T13:46:51.573Z,21.49
2022-10-09T13:49:18.371Z,21.60
2022-10-09T13:51:45.297Z,21.65
2022-10-09T13:54:12.526Z,21.78
2022-10-09T13:56:39.641Z,21.71
2022-10-09T13:59:06.533Z,21.70
2022-10-09T14:01:33.473Z,21.74
2022-10-09T14:04:00.421Z,21.57
2022-10-09T14:06:27.522Z,21.58
2022-10-09T14:08:54.444Z,21.44
2022-10-09T14:11:21.433Z,21.42
2022-10-09T14:13:48.479Z,21.52
2022-10-09T14:16:15.855Z,21.46
2022-10-09T14:18:42.749Z,21.56
2022-10-09T14:21:15.780Z,21.51
2022-10-09T14:23:43.234Z,21.39
2022-10-09T14:26:10.103Z,21.37
2022-10-09T14:28:37.245Z,21.28
2022-10-09T14:31:08.287Z,21.24
2022-10-09T14:33:35.376Z,21.34
2022-10-09T14:36:11.206Z,21.20
2022-10-09T14:38:39.395Z,21.25
2022-10-09T14:41:07.309Z,21.12
2022-10-09T14:43:34.185Z,21.07
2022-10-09T14:46:06.550Z,21.02
2022-10-09T14:48:34.539Z,20.98
2022-10-09T14:51:11.908Z,20.92
2022-10-09T14:53:39.538Z,20.87
2022-10-09T14:56:11.814Z,20.81
2022-10-09T14:58:39.931Z,20.92
2022-10-09T15:01:07.897Z,20.91
2022-10-09T15:03:35.540Z,20.87
2022-10-09T15:06:06.026Z,20.80
2022-10-09T15:08:37.969Z,20.68
2022-10-09T15:11:05.984Z,20.65
2022-10-09T15:13:36.884Z,20.55
2022-10-09T15:16:10.023Z,20.50
2022-10-09T15:18:36.829Z,20.41
2022-10-09T15:21:05.052Z,20.38
2022-10-09T15:23:31.877Z,20.27
2022-10-09T15:26:00.730Z,20.20
2022-10-09T15:28:27.976Z,20.11
2022-10-09T15:31:00.586Z,20.02
2022-10-09T15:33:27.751Z,19.87
2022-10-09T15:35:55.213Z,19.77
2022-10-09T15:38:23.747Z,19.62
2022-10-09T15:40:53.852Z,19.54
2022-10-09T15:43:23.896Z,19.38
2022-10-09T15:45:51.547Z,19.27
2022-10-09T15:48:24.255Z,19.12
2022-10-09T15:50:53.761Z,19.02
2022-10-09T15:53:22.911Z,18.85
2022-10-09T15:55:52.824Z,18.78
2022-10-09T15:58:20.120Z,18.66
2022-10-09T16:00:49.881Z,18.54
2022-10-09T16:03:19.188Z,18.38
2022-10-09T16:05:48.971Z,18.33
2022-10-09T16:08:17.606Z,18.18
2022-10-09T16:10:49.476Z,18.11
2022-10-09T16:13:16.935Z,18.01
2022-10-09T16:15:47.743Z,17.91
2022-10-09T16:18:20.141Z,17.88
2022-10-09T16:20:47.759Z,17.79
2022-10-09T16:23:15.802Z,17.67
2022-10-09T16:25:43.747Z,17.60
2022-10-09T16:28:12.553Z,17.56
2022-10-09T16:30:43.940Z,17.50
2022-10-09T16:33:12.878Z,17.32
2022-10-09T16:35:40.782Z,17.30
2022-10-09T16:38:08.002Z,17.24
2022-10-09T16:41:00.886Z,17.16
2022-10-09T16:43:21.883Z,17.19
2022-10-09T16:45:48.765Z,17.09
2022-10-09T16:48:15.661Z,17.00
2022-10-09T16:50:42.751Z,16.89
2022-10-09T16:53:09.834Z,16.82
2022-10-09T16:55:37.780Z,16.72
2022-10-09T16:58:04.932Z,16.68
2022-10-09T17:00:31.889Z,16.61
2022-10-09T17:02:58.869Z,16.53
2022-10-09T17:05:25.782Z,16.52
2022-10-09T17:07:52.924Z,16.40
2022-10-09T17:10:20.084Z,16.35
2022-10-09T17:12:47.005Z,16.34
2022-10-09T17:15:13.938Z,16.33
2022-10-09T17:17:41.038Z,16.31
2022-10-09T17:20:08.569Z,16.31
2022-10-09T17:22:35.365Z,16.25
2022-10-09T17:25:02.630Z,16.10
2022-10-09T17:27:29.482Z,16.14
2022-10-09T17:29:56.454Z,16.08
2022-10-09T17:32:23.482Z,16.03
2022-10-09T17:34:51.427Z,15.99
2022-10-09T17:37:18.251Z,15.92
2022-10-09T17:39:49.751Z,15.90
2022-10-09T17:42:18.791Z,15.85
2022-10-09T17:44:45.701Z,15.81
2022-10-09T17:47:12.500Z,15.83
2022-10-09T17:49:39.443Z,15.72
2022-10-09T17:52:06.299Z,15.75
2022-10-09T17:54:33.570Z,15.78
2022-10-09T17:57:01.349Z,15.74
2022-10-09T17:59:28.585Z,15.65
2022-10-09T18:01:55.528Z,15.59
2022-10-09T18:04:22.538Z,15.58
2022-10-09T18:06:49.392Z,15.56
2022-10-09T18:09:16.457Z,15.49
2022-10-09T18:11:43.688Z,15.50
2022-10-09T18:14:10.738Z,15.47
2022-10-09T18:16:38.619Z,15.37
2022-10-09T18:19:11.417Z,15.32
2022-10-09T18:21:41.758Z,15.27
2022-10-09T18:24:09.114Z,15.34
2022-10-09T18:26:36.158Z,15.33
2022-10-09T18:29:04.582Z,15.21
2022-10-09T18:31:32.270Z,15.18
2022-10-09T18:34:00.261Z,15.15
2022-10-09T18:36:33.683Z,15.06
2022-10-09T18:39:02.120Z,15.00
2022-10-09T18:41:28.991Z,14.95
2022-10-09T18:44:00.001Z,14.94
2022-10-09T18:46:33.777Z,14.91
2022-10-09T18:49:01.293Z,14.93
2022-10-09T18:51:28.896Z,14.95
2022-10-09T18:54:01.006Z,14.86
2022-10-09T18:56:31.124Z,14.77
2022-10-09T18:59:00.487Z,14.67
2022-10-09T19:01:27.728Z,14.54
2022-10-09T19:03:54.875Z,14.50
2022-10-09T19:06:23.147Z,14.42
2022-10-09T19:08:50.249Z,14.27
2022-10-09T19:11:17.368Z,14.22
2022-10-09T19:13:44.698Z,14.20
2022-10-09T19:16:11.717Z,14.05
2022-10-09T19:18:39.495Z,14.08
2022-10-09T19:21:06.976Z,14.00
2022-10-09T19:23:34.021Z,13.97
2022-10-09T19:26:01.026Z,13.98
2022-10-09T19:28:33.047Z,13.77
2022-10-09T19:31:02.641Z,13.93
2022-10-09T19:33:29.771Z,13.82
2022-10-09T19:35:57.275Z,13.79
2022-10-09T19:38:25.608Z,13.74
2022-10-09T19:40:52.936Z,13.70
2022-10-09T19:43:21.290Z,13.72
2022-10-09T19:45:51.313Z,13.66
2022-10-09T19:48:20.373Z,13.67
2022-10-09T19:50:50.433Z,13.59
2022-10-09T19:53:17.189Z,13.57
2022-10-09T19:55:44.214Z,13.46
2022-10-09T19:58:11.274Z,13.47
2022-10-09T20:00:45.793Z,13.37
2022-10-09T20:03:16.279Z,13.37
2022-10-09T20:05:43.414Z,13.28
2022-10-09T20:08:10.241Z,13.36
2022-10-09T20:10:38.240Z,13.32
2022-10-09T20:13:06.000Z,13.27
2022-10-09T20:15:33.083Z,13.22
2022-10-09T20:17:59.887Z,13.23
2022-10-09T20:20:35.133Z,13.17
2022-10-09T20:23:02.015Z,13.10
2022-10-09T20:25:29.135Z,12.97
2022-10-09T20:27:56.132Z,13.00
2022-10-09T20:30:22.893Z,12.94
2022-10-09T20:32:50.350Z,12.89
2022-10-09T20:35:18.305Z,12.84
2022-10-09T20:37:45.189Z,12.89
2022-10-09T20:40:12.124Z,12.84
2022-10-09T20:42:38.998Z,12.87
2022-10-09T20:45:06.817Z,12.70
2022-10-09T20:47:34.007Z,12.80
2022-10-09T20:50:01.107Z,12.74
2022-10-09T20:52:31.013Z,12.70
2022-10-09T20:54:57.832Z,12.70
2022-10-09T20:57:25.508Z,12.70
2022-10-09T20:59:52.525Z,12.61
2022-10-09T21:02:19.309Z,12.68
2022-10-09T21:04:46.454Z,12.66
2022-10-09T21:07:13.416Z,12.62
2022-10-09T21:09:40.351Z,12.58
2022-10-09T21:12:07.247Z,12.45
2022-10-09T21:14:34.206Z,12.43
2022-10-09T21:17:01.085Z,12.40
2022-10-09T21:19:27.939Z,12.38
2022-10-09T21:21:54.866Z,12.38
2022-10-09T21:24:21.810Z,12.35
2022-10-09T21:26:48.681Z,12.38
2022-10-09T21:29:15.701Z,12.35
2022-10-09T21:31:42.641Z,12.39
2022-10-09T21:34:09.517Z,12.38
2022-10-09T21:37:16.482Z,12.31
2022-10-09T21:39:38.138Z,12.18
2022-10-09T21:42:05.192Z,12.15
2022-10-09T21:44:32.198Z,12.16
2022-10-09T21:46:59.197Z,12.16
2022-10-09T21:49:27.681Z,12.06
2022-10-09T21:51:55.129Z,12.07
2022-10-09T21:54:22.575Z,12.10
2022-10-09T21:56:49.893Z,12.07
2022-10-09T21:59:16.826Z,12.13
2022-10-09T22:01:43.837Z,12.27
2022-10-09T22:04:10.764Z,12.41
2022-10-09T22:06:37.776Z,12.59
2022-10-09T22:09:04.609Z,12.65
2022-10-09T22:11:31.569Z,12.70
2022-10-09T22:13:58.483Z,12.75
2022-10-09T22:16:25.376Z,12.79
2022-10-09T22:18:52.290Z,12.73
2022-10-09T22:21:19.683Z,12.73
2022-10-09T22:23:46.675Z,12.71
2022-10-09T22:26:17.063Z,12.69
2022-10-09T22:28:45.584Z,12.73
2022-10-09T22:31:21.018Z,12.83
2022-10-09T22:33:52.095Z,13.00
2022-10-09T22:36:22.202Z,13.29
2022-10-09T22:38:49.026Z,13.31
2022-10-09T22:41:18.586Z,13.48
2022-10-09T22:43:47.496Z,13.57
2022-10-09T22:46:17.433Z,13.67
2022-10-09T22:48:45.694Z,13.67
2022-10-09T22:51:16.065Z,13.76
2022-10-09T22:53:44.216Z,13.77
2022-10-09T22:56:19.651Z,13.86
2022-10-09T22:58:47.461Z,13.88
2022-10-09T23:01:18.086Z,13.82
2022-10-09T23:03:45.390Z,13.73
2022-10-09T23:06:15.225Z,13.63
2022-10-09T23:08:44.298Z,13.56
2022-10-09T23:11:12.342Z,13.50
2022-10-09T23:13:39.924Z,13.41
2022-10-09T23:16:09.183Z,13.34
2022-10-09T23:18:37.071Z,13.33
2022-10-09T23:21:06.408Z,13.28
2022-10-09T23:23:34.197Z,13.21
2022-10-09T23:26:09.922Z,13.25
2022-10-09T23:28:37.242Z,13.24
2022-10-09T23:31:09.759Z,13.24
2022-10-09T23:33:39.635Z,13.24
2022-10-09T23:36:08.385Z,13.17
2022-10-09T23:38:35.638Z,13.19
2022-10-09T23:41:05.300Z,13.17
2022-10-09T23:43:33.669Z,13.08
2022-10-09T23:46:03.165Z,13.04
2022-10-09T23:48:30.404Z,13.08
2022-10-09T23:50:57.507Z,13.15
2022-10-09T23:53:26.074Z,13.11
2022-10-09T23:55:54.320Z,13.08
2022-10-09T23:58:22.255Z,13.02
